Main page
METAR-TAF:

METAR-TAF

Airports :

Black Hills Airport

Spearfish, South Dakota, United States

latitude: 44-29N, longitude: 103-47W, elevation: 3897 ft

Current weather observation

The report was made 22 minutes ago, at 01:15 UTC
Wind 7 mph from the Northwest
Temperature 59°F
Humidity 39%
Pressure 29.69 in. Hg
Visibility: 10 miles
Broken clouds at a height of 10000 ft

METAR: KSPF 070115Z AUTO 31006KT 10SM BKN100 15/01 A2969 RMK AO2

Time: 19:37 (01:37 UTC)


TAF: missing

Weather observations and forecasts of more than 4000 airports (METAR and TAF reports).

The available stations are represented by yellow and red dots on the map.

Hover mouse over dot to see the name of the station.

Then click to see weather observations and forecasts.

To change the map : click on the green buttons with a black cross to zoom in, on the green button with a dash to zoom out, or on the green arrows for adjacent maps.


METAR-TAF: